Time;durP1;ratioP1;P1;durP2;ratioP2;P2;SDS_P1;SDS_P2;PMS_P1;PMS_P2;Temp;Humidity;BMP_temperature;BMP_pressure;BME280_temperature;BME280_humidity;BME280_pressure;Samples;Min_cycle;Max_cycle;Signal;HPM_P1;HPM_P2
2021/06/04 00:02:16;;;;;;;10.00;5.53;;;;;;;15.12;100.00;96746.34;5081623;28;20056;-59
2021/06/04 00:04:44;;;;;;;9.45;4.80;;;;;;;15.05;100.00;96753.31;5092944;28;20063;-57
2021/06/04 00:07:12;;;;;;;8.10;5.30;;;;;;;15.14;100.00;96754.97;5079747;28;20078;-59
2021/06/04 00:09:40;;;;;;;6.72;5.03;;;;;;;15.05;100.00;96748.00;5089346;28;20047;-59
2021/06/04 00:12:09;;;;;;;6.97;5.10;;;;;;;14.98;100.00;96740.88;5084007;28;20072;-59
2021/06/04 00:14:39;;;;;;;9.48;6.30;;;;;;;15.12;100.00;96749.00;5088845;28;20063;-60
2021/06/04 00:17:12;;;;;;;8.38;5.80;;;;;;;15.02;100.00;96748.31;5083282;28;20130;-58
2021/06/04 00:19:41;;;;;;;7.38;5.78;;;;;;;15.00;100.00;96752.13;5087633;28;20079;-56
2021/06/04 00:22:13;;;;;;;9.98;6.10;;;;;;;14.96;100.00;96751.63;5081151;28;20099;-57
2021/06/04 00:24:42;;;;;;;6.90;6.20;;;;;;;14.99;100.00;96747.81;5090214;28;20067;-60
2021/06/04 00:27:11;;;;;;;6.50;5.80;;;;;;;14.95;100.00;96747.31;5081767;28;20075;-57
2021/06/04 00:29:41;;;;;;;7.47;5.90;;;;;;;14.96;100.00;96751.63;5085520;28;20094;-58
2021/06/04 00:32:12;;;;;;;7.00;5.60;;;;;;;14.70;100.00;96752.59;5084407;28;20060;-57
2021/06/04 00:34:41;;;;;;;7.38;5.65;;;;;;;14.58;100.00;96753.06;5083121;28;20086;-55
2021/06/04 00:37:09;;;;;;;6.47;5.43;;;;;;;14.53;100.00;96766.00;5085511;28;20060;-57
2021/06/04 00:39:39;;;;;;;6.78;5.40;;;;;;;14.40;100.00;96761.13;5089232;28;20072;-59
2021/06/04 00:42:14;;;;;;;8.25;5.43;;;;;;;14.32;100.00;96769.88;5081812;28;20075;-57
2021/06/04 00:44:42;;;;;;;12.10;5.63;;;;;;;14.39;100.00;96772.72;5087280;28;20070;-59
2021/06/04 00:47:12;;;;;;;9.93;5.78;;;;;;;14.48;100.00;96771.75;5084810;28;20059;-58
2021/06/04 00:49:41;;;;;;;7.88;6.05;;;;;;;14.54;100.00;96762.34;5081786;28;20067;-55
2021/06/04 00:52:13;;;;;;;7.00;6.10;;;;;;;14.57;100.00;96765.50;5082698;28;20076;-57
2021/06/04 00:54:41;;;;;;;6.55;5.63;;;;;;;14.61;100.00;96766.03;5091630;28;20079;-58
2021/06/04 00:57:10;;;;;;;8.32;6.72;;;;;;;14.63;100.00;96764.03;5085974;28;20064;-54
2021/06/04 00:59:39;;;;;;;7.95;5.90;;;;;;;14.63;100.00;96769.34;5083370;28;20072;-59
2021/06/04 01:02:09;;;;;;;6.20;5.60;;;;;;;14.61;100.00;96769.50;5083750;28;20692;-59
2021/06/04 01:04:39;;;;;;;6.53;5.90;;;;;;;14.63;100.00;96775.50;5086214;28;20059;-58
2021/06/04 01:07:11;;;;;;;7.57;5.57;;;;;;;14.59;100.00;96768.00;5095320;28;20469;-56
2021/06/04 01:09:46;;;;;;;8.70;6.03;;;;;;;14.56;100.00;96773.66;5090332;28;20509;-56
2021/06/04 01:13:00;;;;;;;7.65;6.40;;;;;;;14.56;100.00;96773.66;5089079;28;20067;-58
2021/06/04 01:15:37;;;;;;;7.85;5.55;;;;;;;14.56;100.00;96779.78;5029737;28;20299;-57
2021/06/04 01:18:10;;;;;;;7.07;6.22;;;;;;;14.54;100.00;96778.28;5080944;28;20076;-59
2021/06/04 01:20:44;;;;;;;8.00;6.07;;;;;;;14.48;100.00;96775.22;5086718;28;20032;-56
2021/06/04 01:23:26;;;;;;;6.80;6.10;;;;;;;14.44;100.00;96775.72;5089552;28;20056;-58
2021/06/04 01:25:59;;;;;;;8.02;6.05;;;;;;;14.46;100.00;96785.19;5091885;28;20492;-57
2021/06/04 01:28:29;;;;;;;6.57;5.88;;;;;;;14.48;100.00;96782.38;5087019;28;20071;-56
2021/06/04 01:31:01;;;;;;;7.13;6.15;;;;;;;14.33;100.00;96789.28;5090709;28;20068;-56
2021/06/04 01:33:33;;;;;;;7.97;5.80;;;;;;;14.20;100.00;96793.19;5087799;28;20072;-58
2021/06/04 01:36:02;;;;;;;7.57;6.05;;;;;;;14.27;100.00;96790.75;5090074;28;20068;-54
2021/06/04 01:38:33;;;;;;;6.57;5.88;;;;;;;14.32;100.00;96791.13;5091941;28;20531;-59
2021/06/04 01:41:05;;;;;;;9.43;6.20;;;;;;;14.23;100.00;96797.38;5088541;28;20090;-58
2021/06/04 01:43:38;;;;;;;8.32;6.03;;;;;;;14.02;100.00;96798.59;5090234;28;20072;-53
2021/06/04 01:46:10;;;;;;;8.23;6.07;;;;;;;14.08;100.00;96798.97;5088341;28;20076;-58
2021/06/04 01:48:43;;;;;;;9.55;6.55;;;;;;;14.08;100.00;96802.44;5093830;28;20087;-59
2021/06/04 01:51:16;;;;;;;7.72;6.70;;;;;;;14.10;100.00;96796.97;5080780;28;20063;-58
2021/06/04 01:53:48;;;;;;;8.48;6.65;;;;;;;13.89;100.00;96798.19;5092581;28;20106;-59
2021/06/04 01:56:25;;;;;;;7.20;6.50;;;;;;;13.96;100.00;96801.88;5082053;28;20640;-58
2021/06/04 01:58:56;;;;;;;8.20;6.30;;;;;;;14.05;100.00;96799.28;5086450;28;20064;-57
2021/06/04 02:01:30;;;;;;;6.70;5.88;;;;;;;13.97;100.00;96795.59;5087697;28;20063;-59
2021/06/04 02:03:58;;;;;;;7.32;5.90;;;;;;;14.05;100.00;96792.16;5088892;28;20072;-60
2021/06/04 02:06:27;;;;;;;8.40;6.13;;;;;;;14.00;100.00;96789.97;5087471;28;20071;-58
2021/06/04 02:08:58;;;;;;;10.30;7.03;;;;;;;13.86;100.00;96790.53;5093112;28;20059;-57
2021/06/04 02:11:29;;;;;;;8.40;7.05;;;;;;;13.77;100.00;96796.81;5086717;28;20063;-56
2021/06/04 02:14:00;;;;;;;11.68;6.25;;;;;;;13.92;100.00;96792.56;5089886;28;20068;-59
2021/06/04 02:16:57;;;;;;;6.93;5.82;;;;;;;13.83;100.00;96787.38;5086282;28;20457;-59
2021/06/04 02:19:34;;;;;;;6.93;6.22;;;;;;;13.83;100.00;96792.66;5014667;28;20077;-59
2021/06/04 02:22:07;;;;;;;7.03;6.00;;;;;;;13.96;100.00;96790.44;5087307;28;20080;-59
2021/06/04 02:24:39;;;;;;;7.15;6.43;;;;;;;14.08;100.00;96793.66;5092869;28;20535;-59
2021/06/04 02:27:12;;;;;;;7.35;6.03;;;;;;;14.14;100.00;96791.22;5086632;28;20060;-55
2021/06/04 02:29:44;;;;;;;6.75;4.97;;;;;;;14.21;100.00;96792.22;5088224;28;20482;-58
2021/06/04 02:32:16;;;;;;;8.48;5.43;;;;;;;14.14;100.00;96796.50;5088275;28;20071;-53
2021/06/04 02:34:48;;;;;;;5.38;4.88;;;;;;;14.02;100.00;96798.59;5086951;28;20097;-58
2021/06/04 02:37:25;;;;;;;8.05;5.60;;;;;;;14.07;100.00;96794.63;5086153;28;20082;-56
2021/06/04 02:39:56;;;;;;;7.22;6.03;;;;;;;14.21;100.00;96791.38;5098422;28;20087;-58
2021/06/04 02:42:28;;;;;;;14.50;6.75;;;;;;;14.25;100.00;96793.56;5083168;28;20533;-58
2021/06/04 02:45:00;;;;;;;14.68;7.07;;;;;;;14.35;100.00;96796.09;5087944;28;20078;-57
2021/06/04 02:47:32;;;;;;;10.95;6.13;;;;;;;14.43;100.00;96792.66;5080459;28;20063;-53
2021/06/04 02:50:01;;;;;;;8.52;5.93;;;;;;;14.49;100.00;96789.34;5087486;28;20063;-57
2021/06/04 02:52:32;;;;;;;10.13;6.10;;;;;;;14.62;100.00;96788.91;5083421;28;20064;-59
2021/06/04 02:55:04;;;;;;;9.60;6.38;;;;;;;14.67;100.00;96787.44;5088794;28;20076;-57
2021/06/04 02:57:36;;;;;;;9.00;6.25;;;;;;;14.43;100.00;96787.34;5083566;28;20538;-58
2021/06/04 03:00:09;;;;;;;8.10;6.20;;;;;;;14.24;100.00;96789.22;5081785;28;20072;-59
2021/06/04 03:02:38;;;;;;;10.70;5.70;;;;;;;14.16;100.00;96783.06;5067680;28;20083;-59
2021/06/04 03:05:10;;;;;;;6.57;5.97;;;;;;;14.18;100.00;96783.75;5063928;28;20075;-60
2021/06/04 03:07:41;;;;;;;8.25;5.93;;;;;;;14.33;100.00;96781.31;5059711;28;20072;-60
2021/06/04 03:10:14;;;;;;;7.10;6.40;;;;;;;14.36;100.00;96783.66;5061159;28;20087;-59
2021/06/04 03:12:46;;;;;;;6.82;6.15;;;;;;;14.43;100.00;96779.38;5061252;28;20083;-56
2021/06/04 03:15:22;;;;;;;6.55;5.95;;;;;;;14.52;100.00;96788.22;5063475;28;20071;-60
2021/06/04 03:17:50;;;;;;;7.65;6.35;;;;;;;14.63;100.00;96779.97;5078412;28;20076;-58
2021/06/04 03:20:30;;;;;;;9.27;6.25;;;;;;;14.33;100.00;96783.97;5083220;28;20067;-61
2021/06/04 03:22:59;;;;;;;12.05;6.40;;;;;;;14.34;100.00;96780.31;5083092;28;20063;-57
2021/06/04 03:25:30;;;;;;;8.20;7.03;;;;;;;14.30;100.00;96784.28;5084403;28;20162;-60
2021/06/04 03:28:00;;;;;;;8.75;6.53;;;;;;;14.29;100.00;96790.59;5076958;28;20076;-54
2021/06/04 03:30:32;;;;;;;9.63;6.25;;;;;;;14.20;100.00;96787.91;5081672;28;20464;-56
2021/06/04 03:33:00;;;;;;;10.95;6.55;;;;;;;14.39;100.00;96780.69;5083464;28;20468;-58
2021/06/04 03:35:29;;;;;;;11.25;6.68;;;;;;;14.31;100.00;96778.81;5081771;28;20066;-55
2021/06/04 03:37:58;;;;;;;8.73;6.30;;;;;;;14.42;100.00;96778.56;5084857;28;20087;-58
2021/06/04 03:40:28;;;;;;;8.88;6.35;;;;;;;14.44;100.00;96779.19;5082472;28;20082;-58
2021/06/04 03:42:58;;;;;;;7.22;6.53;;;;;;;14.63;100.00;96779.97;5091513;28;20067;-57
2021/06/04 03:45:28;;;;;;;;;;;;;;;14.74;100.00;96770.88;5082632;28;21393;-58
2021/06/04 03:47:57;;;;;;;8.10;7.03;;;;;;;14.79;100.00;96773.84;5087030;28;19963;-57
2021/06/04 03:50:25;;;;;;;9.27;6.88;;;;;;;14.90;100.00;96781.50;5085101;28;20051;-56
2021/06/04 03:52:53;;;;;;;5.78;5.28;;;;;;;14.78;100.00;96785.47;5085890;28;20082;-60
2021/06/04 03:55:24;;;;;;;6.22;5.25;;;;;;;14.92;100.00;96788.31;5084119;28;20075;-57
2021/06/04 03:57:54;;;;;;;6.43;5.55;;;;;;;14.98;100.00;96788.66;5085760;28;20083;-58
2021/06/04 04:00:27;;;;;;;7.05;6.35;;;;;;;15.11;100.00;96787.19;5076322;28;20093;-59
2021/06/04 04:02:57;;;;;;;7.82;7.03;;;;;;;15.16;100.00;96795.47;5085032;28;20090;-59
2021/06/04 04:05:26;;;;;;;7.40;6.60;;;;;;;15.07;100.00;96800.94;5079148;28;20068;-59
2021/06/04 04:07:54;;;;;;;6.53;5.90;;;;;;;14.80;100.00;96816.19;5087606;28;20083;-60
2021/06/04 04:10:24;;;;;;;8.07;6.60;;;;;;;14.99;100.00;96817.69;5086126;28;20074;-58
2021/06/04 04:12:53;;;;;;;9.65;7.18;;;;;;;15.22;100.00;96815.25;5090602;28;20633;-59
2021/06/04 04:15:24;;;;;;;8.85;7.32;;;;;;;15.34;100.00;96815.75;5080651;28;20300;-58
2021/06/04 04:17:54;;;;;;;9.77;6.75;;;;;;;15.57;100.00;96803.47;5081040;28;20036;-59
2021/06/04 04:20:26;;;;;;;8.88;7.03;;;;;;;15.61;100.00;96807.44;5083235;28;20070;-58
2021/06/04 04:22:55;;;;;;;61.70;8.60;;;;;;;15.69;100.00;96808.47;5078642;28;20497;-56
2021/06/04 04:25:25;;;;;;;7.88;6.32;;;;;;;16.29;100.00;96802.69;5091433;28;20076;-58
2021/06/04 04:27:53;;;;;;;8.60;7.13;;;;;;;16.13;100.00;96806.22;5104775;22;20083;-53
2021/06/04 04:30:21;;;;;;;9.32;7.13;;;;;;;16.40;100.00;96812.94;5039246;28;20087;-55
2021/06/04 04:32:50;;;;;;;7.53;6.50;;;;;;;16.47;100.00;96816.56;5061368;28;20067;-57
2021/06/04 04:35:22;;;;;;;7.22;6.40;;;;;;;16.89;100.00;96818.06;5063368;28;20082;-52
2021/06/04 04:37:52;;;;;;;7.05;5.95;;;;;;;16.84;100.00;96812.44;5058282;28;20524;-53
2021/06/04 04:40:21;;;;;;;11.77;7.23;;;;;;;16.83;100.00;96814.28;5061050;28;20063;-58
2021/06/04 04:42:50;;;;;;;8.68;7.05;;;;;;;17.12;100.00;96812.75;5054962;28;20083;-56
2021/06/04 04:45:22;;;;;;;7.53;6.47;;;;;;;18.39;100.00;96802.28;5057958;28;20072;-49
2021/06/04 04:47:49;;;;;;;8.30;6.57;;;;;;;19.48;94.79;96803.13;5056858;28;20061;-51
2021/06/04 04:50:18;;;;;;;6.60;5.88;;;;;;;20.32;87.51;96795.09;5061265;28;20068;-54
2021/06/04 04:52:47;;;;;;;8.25;6.47;;;;;;;21.39;76.24;96793.69;5062840;28;20063;-51
2021/06/04 04:55:17;;;;;;;8.70;6.40;;;;;;;20.65;82.33;96796.31;5058015;28;20073;-55
2021/06/04 04:57:45;;;;;;;7.65;6.40;;;;;;;19.79;90.58;96794.78;5054311;28;20546;-55
2021/06/04 05:00:16;;;;;;;9.13;6.32;;;;;;;20.37;82.87;96791.81;5059371;28;20060;-55
2021/06/04 05:02:45;;;;;;;6.38;5.78;;;;;;;19.33;97.31;96800.50;5056117;28;20064;-53
2021/06/04 05:05:18;;;;;;;7.03;6.32;;;;;;;19.81;94.66;96797.25;5059493;28;20455;-54
2021/06/04 05:07:46;;;;;;;6.93;6.03;;;;;;;19.65;98.82;96793.84;5059314;28;20076;-56
2021/06/04 05:10:14;;;;;;;7.55;5.80;;;;;;;19.62;94.70;96794.19;5057550;28;20079;-54
2021/06/04 05:12:43;;;;;;;8.80;6.70;;;;;;;20.14;91.35;96795.63;5058518;28;20181;-54
2021/06/04 05:15:14;;;;;;;6.57;5.83;;;;;;;20.97;76.81;96800.16;5052878;28;20079;-53
2021/06/04 05:17:43;;;;;;;7.40;6.03;;;;;;;22.02;70.50;96804.84;5056352;28;20048;-55
2021/06/04 05:20:13;;;;;;;6.78;6.10;;;;;;;22.07;67.14;96808.75;5062052;28;20076;-50
2021/06/04 05:22:41;;;;;;;8.20;5.97;;;;;;;22.14;65.76;96814.94;5056296;28;20075;-52
2021/06/04 05:25:11;;;;;;;6.13;5.53;;;;;;;22.15;64.37;96817.44;5053076;28;20072;-60
2021/06/04 05:27:39;;;;;;;9.68;6.18;;;;;;;22.24;63.24;96810.00;5059759;28;20085;-50
2021/06/04 05:30:13;;;;;;;7.07;5.90;;;;;;;21.88;65.51;96811.25;5053119;28;20068;-54
2021/06/04 05:32:41;;;;;;;6.35;5.75;;;;;;;21.34;68.08;96817.63;5059018;28;20067;-53
2021/06/04 05:35:13;;;;;;;7.03;5.72;;;;;;;21.61;65.69;96820.31;5055484;28;20072;-59
2021/06/04 05:37:41;;;;;;;6.65;5.95;;;;;;;21.61;67.82;96820.31;5058058;28;20044;-58
2021/06/04 05:40:11;;;;;;;6.68;5.97;;;;;;;21.84;64.75;96827.97;5054059;28;20080;-56
2021/06/04 05:42:40;;;;;;;6.88;6.10;;;;;;;22.25;62.18;96827.78;5059714;28;20226;-58
2021/06/04 05:45:13;;;;;;;6.80;5.90;;;;;;;23.35;59.06;96822.41;5052096;28;20061;-56
2021/06/04 05:47:42;;;;;;;6.22;5.15;;;;;;;22.44;55.27;96829.59;5064426;28;20071;-56
2021/06/04 05:50:14;;;;;;;7.50;5.43;;;;;;;21.72;64.52;96827.78;5050779;28;20057;-54
2021/06/04 05:52:43;;;;;;;6.80;5.00;;;;;;;22.07;59.91;96822.19;5059207;28;20542;-56
2021/06/04 05:55:15;;;;;;;6.45;5.05;;;;;;;21.59;58.79;96817.84;5037533;28;20057;-52
2021/06/04 05:57:43;;;;;;;6.88;4.88;;;;;;;21.17;66.21;96813.63;5057827;28;20072;-54
2021/06/04 06:00:17;;;;;;;8.40;5.78;;;;;;;22.07;64.42;96830.25;5054827;28;20503;-54
2021/06/04 06:02:46;;;;;;;7.25;5.75;;;;;;;21.66;68.63;96829.41;5054413;28;20440;-55
2021/06/04 06:05:15;;;;;;;5.78;5.28;;;;;;;22.31;67.30;96823.44;5053104;28;20068;-55
2021/06/04 06:07:43;;;;;;;7.30;5.45;;;;;;;21.74;66.43;96833.75;5054464;28;20071;-57
2021/06/04 06:10:12;;;;;;;7.13;5.50;;;;;;;21.80;66.23;96838.31;5051144;28;21752;-56
2021/06/04 06:12:40;;;;;;;6.10;4.85;;;;;;;22.35;66.69;96836.22;5060847;28;20080;-55
2021/06/04 06:15:10;;;;;;;8.63;5.65;;;;;;;21.39;73.81;96833.91;5054126;28;20064;-58
2021/06/04 06:17:39;;;;;;;7.47;5.70;;;;;;;22.40;67.95;96839.13;5057936;28;20072;-55
2021/06/04 06:20:10;;;;;;;7.72;5.55;;;;;;;22.90;66.04;96842.06;5056646;28;20068;-54
2021/06/04 06:22:38;;;;;;;5.88;5.28;;;;;;;21.89;75.71;96847.00;5056729;28;20086;-54
2021/06/04 06:25:08;;;;;;;8.75;5.70;;;;;;;21.73;78.87;96856.28;5055316;28;20060;-56
2021/06/04 06:27:36;;;;;;;7.93;5.53;;;;;;;22.16;76.10;96848.66;5059009;28;20472;-55
2021/06/04 06:30:06;;;;;;;4.82;4.43;;;;;;;22.46;69.53;96859.75;5055555;28;20526;-56
2021/06/04 06:32:34;;;;;;;6.43;4.55;;;;;;;23.37;64.26;96849.97;5057425;28;20114;-55
2021/06/04 06:35:04;;;;;;;7.40;5.05;;;;;;;23.51;63.24;96843.44;5058627;28;20374;-59
2021/06/04 06:37:32;;;;;;;5.93;5.32;;;;;;;23.38;63.90;96854.28;5060908;28;20080;-58
2021/06/04 06:40:00;;;;;;;6.55;5.38;;;;;;;23.18;67.14;96854.38;5051859;28;20075;-55
2021/06/04 06:42:28;;;;;;;8.50;5.75;;;;;;;24.72;60.65;96844.91;5055754;28;20428;-54
2021/06/04 06:44:56;;;;;;;7.20;5.30;;;;;;;24.97;56.17;96847.53;5058107;28;20506;-58
2021/06/04 06:47:24;;;;;;;5.70;5.07;;;;;;;24.80;59.79;96841.91;5052201;28;20060;-53
2021/06/04 06:49:52;;;;;;;6.05;5.43;;;;;;;25.75;54.99;96841.28;5053976;28;20072;-54
2021/06/04 06:52:22;;;;;;;6.75;5.32;;;;;;;26.08;51.80;96849.94;5034701;28;20460;-56
2021/06/04 06:54:50;;;;;;;9.35;5.53;;;;;;;26.46;51.02;96841.38;5060101;28;20076;-55
2021/06/04 06:57:18;;;;;;;5.72;5.00;;;;;;;24.86;56.28;96853.69;5052261;28;20064;-56
2021/06/04 06:59:47;;;;;;;5.90;5.30;;;;;;;24.75;60.74;96851.75;5049628;28;20504;-53
2021/06/04 07:02:16;;;;;;;6.40;5.35;;;;;;;24.43;61.14;96846.47;5031066;28;20068;-58
2021/06/04 07:04:45;;;;;;;6.30;5.68;;;;;;;24.23;63.30;96851.22;5049625;28;20069;-54
2021/06/04 07:07:13;;;;;;;7.10;5.57;;;;;;;25.13;61.38;96848.81;5054849;28;20083;-52
2021/06/04 07:09:42;;;;;;;7.80;5.60;;;;;;;25.05;59.52;96849.94;5059176;28;20064;-51
2021/06/04 07:12:11;;;;;;;6.18;5.50;;;;;;;24.94;56.76;96861.47;5036895;28;20452;-56
2021/06/04 07:14:39;;;;;;;5.55;5.05;;;;;;;24.11;62.40;96862.69;5054545;28;20080;-55
2021/06/04 07:17:08;;;;;;;7.55;5.65;;;;;;;23.79;64.05;96869.19;5052883;28;20076;-56
2021/06/04 07:19:36;;;;;;;6.10;5.50;;;;;;;24.11;60.44;96867.25;5058895;28;20072;-54
2021/06/04 07:22:05;;;;;;;7.40;6.00;;;;;;;24.24;61.06;96863.63;5055982;28;20162;-53
2021/06/04 07:24:33;;;;;;;6.20;5.60;;;;;;;25.53;56.90;96864.47;5055283;28;20096;-56
2021/06/04 07:27:03;;;;;;;6.80;6.13;;;;;;;24.69;60.32;96860.72;5050698;28;20504;-56
2021/06/04 07:29:31;;;;;;;9.18;6.32;;;;;;;24.79;62.39;96864.56;5049294;28;20080;-53
2021/06/04 07:32:00;;;;;;;6.88;5.10;;;;;;;25.52;54.72;96865.53;5055238;28;20074;-57
2021/06/04 07:34:29;;;;;;;6.68;5.72;;;;;;;25.79;54.63;96864.13;5055678;28;20067;-57
2021/06/04 07:36:58;;;;;;;7.22;5.57;;;;;;;26.88;51.22;96857.47;5057161;28;20080;-55
2021/06/04 07:39:29;;;;;;;18.17;6.35;;;;;;;26.53;54.81;96863.75;5056093;28;20116;-57
2021/06/04 07:41:59;;;;;;;133.90;12.93;;;;;;;26.65;51.99;96859.16;5057576;28;20457;-58
2021/06/04 07:44:28;;;;;;;7.25;5.50;;;;;;;26.21;55.01;96861.34;5052073;28;20469;-54
2021/06/04 07:46:57;;;;;;;6.97;6.10;;;;;;;26.87;50.70;96859.34;5058188;28;20083;-58
2021/06/04 07:49:26;;;;;;;7.85;6.13;;;;;;;27.30;51.46;96859.97;5050693;28;20072;-58
2021/06/04 07:51:56;;;;;;;7.55;5.70;;;;;;;27.57;51.17;96861.03;5057297;28;20067;-60
2021/06/04 07:54:28;;;;;;;6.15;5.55;;;;;;;26.27;56.86;96862.31;5056274;28;20060;-57
2021/06/04 07:56:57;;;;;;;6.28;5.10;;;;;;;25.68;64.53;96854.09;5057154;28;20072;-60
2021/06/04 07:59:25;;;;;;;6.45;5.50;;;;;;;25.57;65.76;96850.28;5052835;28;20072;-60
2021/06/04 08:01:55;;;;;;;7.65;5.50;;;;;;;25.78;62.64;96851.63;5059733;28;20067;-61
2021/06/04 08:04:23;;;;;;;7.82;6.05;;;;;;;25.10;63.90;96844.66;5056376;28;20636;-59
2021/06/04 08:06:51;;;;;;;6.10;5.50;;;;;;;25.02;65.74;96849.56;5055917;28;20099;-57
2021/06/04 08:09:20;;;;;;;7.22;5.95;;;;;;;24.62;74.08;96845.44;5054647;28;20579;-55
2021/06/04 08:11:49;;;;;;;6.68;5.13;;;;;;;25.15;73.01;96859.38;5057882;28;20060;-55
2021/06/04 08:14:19;;;;;;;8.88;5.20;;;;;;;25.55;66.21;96848.88;5048756;28;20500;-57
2021/06/04 08:16:48;;;;;;;;;;;;;;;25.75;63.60;96851.28;5053326;28;20068;-57
2021/06/04 08:19:18;;;;;;;6.05;5.40;;;;;;;25.18;65.45;96853.53;5057884;28;19968;-59
2021/06/04 08:21:50;;;;;;;6.28;5.22;;;;;;;25.98;62.92;96855.91;5052373;28;20073;-59
2021/06/04 08:24:22;;;;;;;8.35;5.47;;;;;;;25.67;60.53;96860.53;5052465;28;20075;-55
2021/06/04 08:26:51;;;;;;;7.70;5.60;;;;;;;25.79;60.84;96857.88;5055246;28;20071;-55
2021/06/04 08:29:19;;;;;;;6.25;5.38;;;;;;;26.19;57.82;96858.09;5055783;28;20068;-56
2021/06/04 08:31:47;;;;;;;8.10;5.00;;;;;;;26.60;58.32;96855.50;5050124;28;20463;-57
2021/06/04 08:34:17;;;;;;;7.63;5.82;;;;;;;26.56;55.92;96860.56;5057920;28;20076;-57
2021/06/04 08:36:45;;;;;;;7.15;5.20;;;;;;;27.58;52.99;96864.56;5054511;28;20076;-55
2021/06/04 08:39:16;;;;;;;5.55;4.95;;;;;;;28.26;46.69;96854.66;5056199;28;20111;-59
2021/06/04 08:41:49;;;;;;;6.30;5.05;;;;;;;27.57;48.24;96857.50;5054725;28;20068;-57
2021/06/04 08:44:33;;;;;;;6.28;5.32;;;;;;;27.38;48.41;96856.88;5055446;28;20527;-55
2021/06/04 08:47:03;;;;;;;6.57;5.57;;;;;;;27.41;50.46;96854.50;5053848;28;20060;-57
2021/06/04 08:49:41;;;;;;;7.55;5.63;;;;;;;27.09;47.87;96862.25;5053290;28;20127;-56
2021/06/04 08:52:19;;;;;;;6.00;5.40;;;;;;;27.95;47.28;96847.91;5052644;28;20124;-57
2021/06/04 08:54:53;;;;;;;7.00;5.43;;;;;;;27.20;46.49;96860.59;5056663;28;20079;-59
2021/06/04 08:57:36;;;;;;;6.05;5.00;;;;;;;28.11;45.36;96845.19;5052184;28;20495;-52
2021/06/04 09:00:07;;;;;;;8.32;5.10;;;;;;;27.71;47.79;96855.31;5054213;28;20064;-57
2021/06/04 09:02:38;;;;;;;7.85;5.43;;;;;;;27.78;46.41;96842.47;5057612;28;20088;-55
2021/06/04 09:05:12;;;;;;;8.85;5.32;;;;;;;27.80;46.58;96843.03;5052423;28;20087;-54
2021/06/04 09:07:45;;;;;;;8.55;5.60;;;;;;;27.24;47.31;96845.50;5050584;28;20079;-53
2021/06/04 09:10:16;;;;;;;6.35;5.70;;;;;;;27.71;45.80;96847.19;5060220;28;20087;-56
2021/06/04 09:12:47;;;;;;;11.30;5.40;;;;;;;29.06;42.69;96837.06;5055414;28;20072;-56
2021/06/04 09:15:17;;;;;;;5.70;5.20;;;;;;;28.65;46.15;96844.66;5053494;28;20717;-57
2021/06/04 09:17:52;;;;;;;6.80;5.03;;;;;;;29.15;42.79;96841.00;5053524;28;20060;-54
2021/06/04 09:20:32;;;;;;;5.88;4.70;;;;;;;28.52;43.22;96834.16;5052431;28;20084;-50
2021/06/04 09:23:04;;;;;;;5.25;4.50;;;;;;;28.73;40.22;96838.78;5049264;28;20068;-59
2021/06/04 09:25:34;;;;;;;6.10;4.30;;;;;;;28.98;42.23;96838.31;5055802;28;20528;-59
2021/06/04 09:28:33;;;;;;;5.35;4.85;;;;;;;28.77;43.72;96839.13;5054362;28;20079;-55
2021/06/04 09:31:18;;;;;;;7.20;4.95;;;;;;;28.82;43.12;96844.63;5053231;28;20547;-56
2021/06/04 09:33:48;;;;;;;5.38;4.60;;;;;;;28.71;42.18;96835.53;5058076;28;20531;-57
2021/06/04 09:36:20;;;;;;;4.70;4.20;;;;;;;28.73;42.34;96838.78;5059683;28;20717;-54
2021/06/04 09:38:52;;;;;;;5.20;4.70;;;;;;;28.44;42.36;96846.25;5054840;28;20072;-54
2021/06/04 09:41:31;;;;;;;6.03;4.50;;;;;;;29.38;41.66;96848.03;5051970;28;20065;-58
2021/06/04 09:44:11;;;;;;;4.93;4.25;;;;;;;29.27;41.03;96849.81;5054105;28;20494;-60
2021/06/04 09:46:42;;;;;;;6.05;5.07;;;;;;;29.48;40.19;96853.56;5061394;28;20061;-54
2021/06/04 09:49:10;;;;;;;6.03;5.28;;;;;;;29.38;40.15;96848.03;5056831;28;20464;-51
2021/06/04 09:51:41;;;;;;;7.53;5.32;;;;;;;29.19;41.57;96846.75;5058994;28;20080;-56
2021/06/04 09:54:23;;;;;;;6.57;5.32;;;;;;;29.82;40.26;96850.69;5052684;28;20488;-54
2021/06/04 09:57:04;;;;;;;6.57;5.28;;;;;;;29.48;40.10;96839.97;5061507;28;20068;-50
2021/06/04 09:59:32;;;;;;;6.75;5.70;;;;;;;28.96;40.59;96855.91;5051947;28;20079;-58
2021/06/04 10:02:01;;;;;;;6.70;5.30;;;;;;;29.53;40.59;96850.09;5060887;28;20453;-55
2021/06/04 10:04:31;;;;;;;5.43;4.93;;;;;;;29.01;41.26;96846.00;5055102;28;20075;-54
2021/06/04 10:07:04;;;;;;;7.72;6.90;;;;;;;28.70;43.66;96847.47;5056822;28;20083;-54
2021/06/04 10:09:39;;;;;;;7.22;6.57;;;;;;;29.20;43.17;96843.75;5060566;28;20084;-57
2021/06/04 10:12:10;;;;;;;7.10;6.40;;;;;;;30.06;39.92;96840.28;5053752;28;20083;-55
2021/06/04 10:14:50;;;;;;;8.18;7.25;;;;;;;28.82;41.12;96839.19;5055087;28;20069;-58
2021/06/04 10:17:40;;;;;;;6.75;6.05;;;;;;;29.04;40.53;96831.91;5051968;28;20517;-58
2021/06/04 10:20:31;;;;;;;9.07;6.30;;;;;;;30.29;38.71;96832.88;5057298;28;20069;-57
2021/06/04 10:23:10;;;;;;;6.45;5.82;;;;;;;30.18;40.42;96826.50;5060522;28;20064;-53
2021/06/04 10:25:43;;;;;;;7.15;6.45;;;;;;;30.58;39.12;96819.72;5057908;28;20059;-54
2021/06/04 10:28:42;;;;;;;6.18;5.55;;;;;;;30.67;38.89;96818.94;5058064;28;20064;-56
2021/06/04 10:31:23;;;;;;;9.73;6.18;;;;;;;30.48;40.21;96821.28;5082830;22;20531;-62
2021/06/04 10:34:02;;;;;;;7.97;6.55;;;;;;;30.76;38.83;96821.19;5076399;28;20084;-62
2021/06/04 10:36:33;;;;;;;6.60;5.30;;;;;;;30.25;40.95;96810.81;5071969;28;20075;-62
2021/06/04 10:39:08;;;;;;;7.35;6.63;;;;;;;28.68;40.46;96816.19;5077928;28;20072;-62
2021/06/04 10:41:44;;;;;;;7.18;6.43;;;;;;;29.55;39.54;96807.16;5080368;28;21219;-61
2021/06/04 10:44:16;;;;;;;9.65;5.82;;;;;;;30.09;38.26;96807.13;5080612;28;20070;-62
2021/06/04 10:46:48;;;;;;;7.95;6.57;;;;;;;29.51;40.28;96806.84;5080778;28;20060;-62
2021/06/04 10:49:30;;;;;;;8.55;7.47;;;;;;;29.37;40.40;96808.34;5081033;28;20094;-63
2021/06/04 10:51:59;;;;;;;11.30;6.70;;;;;;;29.46;42.07;96804.09;5072485;28;20080;-63
2021/06/04 10:54:38;;;;;;;7.00;6.30;;;;;;;29.89;40.80;96799.63;5077410;28;20079;-62
2021/06/04 10:57:12;;;;;;;7.53;6.70;;;;;;;29.65;41.11;96796.41;5077909;28;20079;-62
2021/06/04 10:59:48;;;;;;;9.32;6.78;;;;;;;29.63;40.58;96786.88;5080690;28;20483;-62
2021/06/04 11:02:20;;;;;;;7.75;6.90;;;;;;;29.54;41.35;96795.47;5076863;28;20067;-60
2021/06/04 11:04:59;;;;;;;11.52;7.78;;;;;;;29.63;39.10;96795.88;5078530;28;20060;-61
2021/06/04 11:07:31;;;;;;;8.00;6.18;;;;;;;29.67;41.43;96788.03;5080073;28;20683;-62
2021/06/04 11:10:07;;;;;;;7.43;6.38;;;;;;;29.09;41.08;96788.50;5079316;28;20095;-62
2021/06/04 11:13:02;;;;;;;6.78;5.85;;;;;;;30.03;38.05;96781.78;5080022;28;20084;-62
2021/06/04 11:15:50;;;;;;;13.25;7.05;;;;;;;29.87;39.59;96782.75;5079904;28;20075;-61
2021/06/04 11:18:30;;;;;;;6.95;5.72;;;;;;;30.31;37.95;96774.38;5072433;28;20075;-62
2021/06/04 11:21:01;;;;;;;8.67;6.43;;;;;;;30.59;36.17;96780.50;5080061;28;20113;-62
2021/06/04 11:23:36;;;;;;;10.38;5.90;;;;;;;31.00;37.01;96783.44;5074488;28;20075;-62
2021/06/04 11:26:08;;;;;;;7.57;6.05;;;;;;;30.82;37.95;96776.56;5081396;28;20067;-61
2021/06/04 11:28:41;;;;;;;7.35;6.63;;;;;;;30.65;37.35;96774.81;5071501;28;20072;-62
2021/06/04 11:31:16;;;;;;;8.65;6.10;;;;;;;30.77;36.43;96771.94;5072998;28;20748;-61
2021/06/04 11:33:49;;;;;;;9.07;5.68;;;;;;;30.86;35.42;96773.03;5073784;28;20082;-62
2021/06/04 11:36:20;;;;;;;6.18;5.60;;;;;;;31.00;35.30;96770.63;5079427;28;20063;-61
2021/06/04 11:38:50;;;;;;;7.10;6.32;;;;;;;30.76;34.98;96770.28;5076822;28;20111;-62
2021/06/04 11:41:22;;;;;;;6.03;5.47;;;;;;;31.09;36.19;96769.03;5077365;28;20531;-62
2021/06/04 11:43:53;;;;;;;5.28;4.80;;;;;;;31.09;33.35;96758.13;5082119;28;20400;-62
2021/06/04 11:46:26;;;;;;;6.72;4.38;;;;;;;30.93;32.41;96749.09;5076765;28;20056;-61
2021/06/04 11:48:58;;;;;;;5.00;4.30;;;;;;;30.80;32.35;96754.22;5072197;28;20484;-62
2021/06/04 11:51:32;;;;;;;5.88;4.50;;;;;;;31.02;30.72;96756.75;5077052;28;20264;-62